5. Juli 2022

Uhrzeit Code Wetter Temp. Sichtweite Wolkendecke Wind METAR/SPECI
7:50 pm
V
77 °F 6¼ mi+ - 320° 320° 8 kt METAR EDDS 051750Z AUTO 32008KT 290V350 CAVOK 25/07 Q1020 NOSIG
7:20 pm
V
77 °F 6¼ mi+ - 330° 330° 8 kt METAR EDDS 051720Z AUTO 33008KT 280V040 CAVOK 25/08 Q1020
6:50 pm
V
77 °F 6¼ mi+ - 330° 330° 7 kt METAR EDDS 051650Z AUTO 33007KT 300V020 CAVOK 25/09 Q1020
6:20 pm
V
79 °F 6¼ mi+ - 330° 330° 5 kt METAR EDDS 051620Z AUTO 33005KT 280V050 CAVOK 26/09 Q1020 NOSIG
5:50 pm
V
79 °F 6¼ mi+ - 320° 320° 7 kt METAR EDDS 051550Z AUTO 32007KT 280V360 CAVOK 26/09 Q1020 NOSIG
5:20 pm
V
79 °F 6¼ mi+ - 330° 330° 9 kt METAR EDDS 051520Z AUTO 33009KT 290V360 CAVOK 26/09 Q1020 NOSIG
4:50 pm
V
79 °F 6¼ mi+ - 330° 330° 4 kt METAR EDDS 051450Z AUTO 33004KT 290V050 CAVOK 26/10 Q1021 NOSIG
4:20 pm
V
79 °F 6¼ mi+ - 020° 020° 6 kt METAR EDDS 051420Z AUTO 02006KT 300V060 CAVOK 26/09 Q1021 NOSIG
3:50 pm
V
77 °F 6¼ mi+ - 330° 330° 5 kt METAR EDDS 051350Z AUTO 33005KT 270V080 CAVOK 25/09 Q1021 NOSIG
3:20 pm
V
77 °F 6¼ mi+ - 030° 030° 5 kt METAR EDDS 051320Z AUTO 03005KT 350V080 CAVOK 25/09 Q1021 NOSIG
2:50 pm
V
79 °F 6¼ mi+ - 340° 340° 7 kt METAR EDDS 051250Z AUTO 34007KT 220V020 CAVOK 26/10 Q1021 NOSIG
2:20 pm
V
77 °F 6¼ mi+ - 350° 350° 6 kt METAR EDDS 051220Z AUTO 35006KT 290V060 CAVOK 25/09 Q1021 NOSIG
1:50 pm
V
75 °F 6¼ mi+ - 310° 310° 6 kt METAR EDDS 051150Z AUTO 31006KT 260V050 CAVOK 24/08 Q1021 NOSIG
1:20 pm
V
75 °F 6¼ mi+ - 010° 010° 3 kt METAR EDDS 051120Z AUTO 01003KT 280V050 CAVOK 24/08 Q1021 NOSIG
12:50 pm
V
75 °F 6¼ mi+ - 300° 300° 6 kt METAR EDDS 051050Z AUTO 30006KT 230V350 CAVOK 24/08 Q1021 NOSIG
12:20 pm
V
77 °F 6¼ mi+ - Var Var 4 kt METAR EDDS 051020Z AUTO VRB04KT CAVOK 25/09 Q1021 NOSIG
11:50 am
V
75 °F 6¼ mi+ - Var Var 3 kt METAR EDDS 050950Z AUTO VRB03KT CAVOK 24/09 Q1022
11:20 am
V
75 °F 6¼ mi+ - Var Var 3 kt METAR EDDS 050920Z AUTO VRB03KT CAVOK 24/10 Q1021 NOSIG
10:50 am
V
73 °F 6¼ mi+ - Var Var 2 kt METAR EDDS 050850Z AUTO VRB02KT CAVOK 23/10 Q1021 BECMG 32006KT
10:20 am
V
72 °F 6¼ mi+ - Var Var 2 kt METAR EDDS 050820Z AUTO VRB02KT CAVOK 22/10 Q1021 BECMG 32006KT
9:50 am
V
70 °F 6¼ mi+ - Var Var 2 kt METAR EDDS 050750Z AUTO VRB02KT CAVOK 21/10 Q1021 NOSIG
9:20 am
V
70 °F 6¼ mi+ - Var Var 2 kt METAR EDDS 050720Z AUTO VRB02KT CAVOK 21/11 Q1021 NOSIG
8:50 am
V
70 °F 6¼ mi+ - Var Var 1 kt METAR EDDS 050650Z AUTO VRB01KT CAVOK 21/11 Q1021 NOSIG
8:20 am
V
66 °F 6¼ mi+ - Var Var 1 kt METAR EDDS 050620Z AUTO VRB01KT CAVOK 19/10 Q1021 NOSIG
7:50 am
V
64 °F 6¼ mi+ - Var Var 1 kt METAR EDDS 050550Z AUTO VRB01KT CAVOK 18/10 Q1021 NOSIG
7:20 am
V
63 °F 6¼ mi+ - Var Var 1 kt METAR EDDS 050520Z AUTO VRB01KT CAVOK 17/12 Q1021 NOSIG
6:50 am
V
59 °F 6¼ mi+ - 300° 300° 4 kt METAR EDDS 050450Z AUTO 30004KT CAVOK 15/11 Q1021 NOSIG
6:20 am
V
57 °F 6¼ mi+ - Var Var 1 kt METAR EDDS 050420Z AUTO VRB01KT CAVOK 14/11 Q1020 NOSIG
5:50 am
V
57 °F 6¼ mi+ - Var Var 2 kt METAR EDDS 050350Z AUTO VRB02KT CAVOK 14/11 Q1020
5:20 am
V
55 °F 6¼ mi+ - 340° 340° 2 kt METAR EDDS 050320Z AUTO 34002KT CAVOK 13/10 Q1020
4:50 am
V
57 °F 6¼ mi+ - Var Var 1 kt METAR EDDS 050250Z AUTO VRB01KT CAVOK 14/11 Q1020
4:20 am
V
57 °F 6¼ mi+ - 220° 220° 1 kt METAR EDDS 050220Z AUTO 22001KT CAVOK 14/12 Q1020
3:50 am
V
57 °F 6¼ mi+ - Var Var 2 kt METAR EDDS 050150Z AUTO VRB02KT CAVOK 14/12 Q1020
3:20 am
V
59 °F 6¼ mi+ - Var Var 2 kt METAR EDDS 050120Z AUTO VRB02KT CAVOK 15/12 Q1020
2:50 am
V
59 °F 6¼ mi+ - 270° 270° 3 kt METAR EDDS 050050Z AUTO 27003KT 160V300 CAVOK 15/12 Q1020
2:20 am
V
61 °F 6¼ mi+ - 280° 280° 3 kt METAR EDDS 050020Z AUTO 28003KT 250V310 CAVOK 16/12 Q1020
1:50 am
V
63 °F 6¼ mi+ - Var Var 2 kt METAR EDDS 042350Z AUTO VRB02KT CAVOK 17/12 Q1020
1:20 am
V
61 °F 6¼ mi+ - Var Var 1 kt METAR EDDS 042320Z AUTO VRB01KT CAVOK 16/12 Q1020
12:50 am
V
63 °F 6¼ mi+ - Var Var 2 kt METAR EDDS 042250Z AUTO VRB02KT CAVOK 17/12 Q1020
12:20 am
V
66 °F 6¼ mi+ - Var Var 1 kt METAR EDDS 042220Z AUTO VRB01KT CAVOK 19/11 Q1020

4. Juli 2022

Uhrzeit Code Wetter Temp. Sichtweite Wolkendecke Wind METAR/SPECI
11:50 pm
V
64 °F 6¼ mi+ - Var Var 1 kt METAR EDDS 042150Z AUTO VRB01KT CAVOK 18/12 Q1019
11:20 pm
V
68 °F 6¼ mi+ - 230° 230° 3 kt METAR EDDS 042120Z AUTO 23003KT 180V300 CAVOK 20/13 Q1019
10:50 pm
V
70 °F 6¼ mi+ - Var Var 2 kt METAR EDDS 042050Z AUTO VRB02KT CAVOK 21/11 Q1019
10:20 pm
V
72 °F 6¼ mi+ - Var Var 1 kt METAR EDDS 042020Z AUTO VRB01KT CAVOK 22/10 Q1019 NOSIG
9:50 pm
V
72 °F 6¼ mi+ - 330° 330° 4 kt METAR EDDS 041950Z AUTO 33004KT CAVOK 22/10 Q1019 NOSIG
9:20 pm
V
73 °F 6¼ mi+ - 320° 320° 4 kt METAR EDDS 041920Z AUTO 32004KT 9999 -SHRA FEW///TCU 23/10 Q1019
8:50 pm
V
73 °F 6¼ mi+ - 320° 320° 5 kt METAR EDDS 041850Z AUTO 32005KT 9999 -SHRA FEW///TCU 23/10 Q1019 NOSIG
8:20 pm
V
73 °F 6¼ mi+ - 320° 320° 6 kt METAR EDDS 041820Z AUTO 32006KT CAVOK 23/10 Q1018 NOSIG
7:50 pm
V
75 °F 6¼ mi+ - 330° 330° 7 kt METAR EDDS 041750Z AUTO 33007KT CAVOK 24/11 Q1018 NOSIG
7:20 pm
V
77 °F 6¼ mi+ - 330° 330° 7 kt METAR EDDS 041720Z AUTO 33007KT CAVOK 25/12 Q1018 NOSIG
6:50 pm
V
75 °F 6¼ mi+ - 320° 320° 6 kt METAR EDDS 041650Z AUTO 32006KT 300V010 CAVOK 24/12 Q1018 NOSIG
6:20 pm
V
77 °F 6¼ mi+ - 340° 340° 7 kt METAR EDDS 041620Z AUTO 34007KT 310V040 CAVOK 25/13 Q1018 NOSIG
5:50 pm
V
77 °F 6¼ mi+ - 320° 320° 8 kt METAR EDDS 041550Z AUTO 32008KT CAVOK 25/13 Q1018 NOSIG
5:20 pm
V
77 °F 6¼ mi+ - 320° 320° 7 kt METAR EDDS 041520Z AUTO 32007KT 300V360 CAVOK 25/13 Q1018 NOSIG
4:50 pm
V
77 °F 6¼ mi+ - 350° 350° 7 kt METAR EDDS 041450Z AUTO 35007KT 290V040 CAVOK 25/13 Q1018 NOSIG
4:20 pm
V
77 °F 6¼ mi+ - 040° 040° 6 kt METAR EDDS 041420Z AUTO 04006KT 300V100 CAVOK 25/13 Q1018 NOSIG
3:50 pm
V
77 °F 6¼ mi+ - 070° 070° 4 kt METAR EDDS 041350Z AUTO 07004KT 030V120 9999 FEW049 25/13 Q1019 NOSIG
3:20 pm
V
77 °F 6¼ mi+ - Var Var 5 kt METAR EDDS 041320Z AUTO VRB05KT CAVOK 25/13 Q1019 NOSIG
2:50 pm
V
77 °F 6¼ mi+ - 340° 340° 6 kt METAR EDDS 041250Z AUTO 34006KT 290V030 CAVOK 25/13 Q1019 NOSIG
2:20 pm
V
75 °F 6¼ mi+ - Var Var 4 kt METAR EDDS 041220Z AUTO VRB04KT CAVOK 24/13 Q1019 NOSIG
1:50 pm
V
75 °F 6¼ mi+ - Var Var 3 kt METAR EDDS 041150Z AUTO VRB03KT CAVOK 24/13 Q1020 NOSIG
1:20 pm
V
73 °F 6¼ mi+ - 160° 160° 3 kt METAR EDDS 041120Z AUTO 16003KT 100V240 9999 FEW045 23/12 Q1020 NOSIG
12:50 pm
V
73 °F 6¼ mi+ - 060° 060° 4 kt METAR EDDS 041050Z AUTO 06004KT 010V130 CAVOK 23/13 Q1020 NOSIG
12:20 pm
V
72 °F 6¼ mi+ - Var Var 4 kt METAR EDDS 041020Z AUTO VRB04KT 9999 FEW049 22/13 Q1021 NOSIG
11:50 am
V
72 °F 6¼ mi+ 4.800 ft Var Var 3 kt METAR EDDS 040950Z AUTO VRB03KT 9999 BKN048 22/14 Q1021 NOSIG
11:20 am
V
70 °F 6¼ mi+ 4.800 ft Var Var 4 kt METAR EDDS 040920Z AUTO VRB04KT 9999 OVC048 21/13 Q1020 NOSIG
10:50 am
V
68 °F 6¼ mi+ 4.700 ft 360° 360° 3 kt METAR EDDS 040850Z AUTO 36003KT 320V060 9999 OVC047 20/13 Q1020 NOSIG
10:20 am
V
68 °F 6¼ mi+ 4.800 ft 040° 040° 3 kt METAR EDDS 040820Z AUTO 04003KT 340V080 9999 BKN048 20/13 Q1020 NOSIG
9:50 am
V
68 °F 6¼ mi+ - 090° 090° 3 kt METAR EDDS 040750Z AUTO 09003KT 040V140 CAVOK 20/13 Q1020 NOSIG
9:20 am
V
68 °F 6¼ mi+ - 350° 350° 3 kt METAR EDDS 040720Z AUTO 35003KT 280V080 CAVOK 20/13 Q1020 NOSIG
8:50 am
V
66 °F 6¼ mi+ - Var Var 2 kt METAR EDDS 040650Z AUTO VRB02KT CAVOK 19/13 Q1021
8:20 am
V
64 °F 6¼ mi+ - 330° 330° 4 kt METAR EDDS 040620Z AUTO 33004KT 290V020 CAVOK 18/12 Q1020 NOSIG
7:50 am
V
64 °F 6¼ mi+ - 280° 280° 3 kt METAR EDDS 040550Z AUTO 28003KT 240V300 CAVOK 18/12 Q1021 NOSIG
7:20 am
V
64 °F 6¼ mi+ - 280° 280° 7 kt METAR EDDS 040520Z AUTO 28007KT CAVOK 18/13 Q1021 NOSIG
6:50 am
V
64 °F 6¼ mi+ - 280° 280° 7 kt METAR EDDS 040450Z AUTO 28007KT CAVOK 18/12 Q1020 NOSIG
6:20 am
V
64 °F 6¼ mi+ - 280° 280° 5 kt METAR EDDS 040420Z AUTO 28005KT CAVOK 18/12 Q1020 NOSIG
5:50 am
V
64 °F 6¼ mi+ - 310° 310° 4 kt METAR EDDS 040350Z AUTO 31004KT CAVOK 18/12 Q1020
5:20 am
V
64 °F 6¼ mi+ - 300° 300° 6 kt METAR EDDS 040320Z AUTO 30006KT CAVOK 18/12 Q1020
4:50 am
V
66 °F 6¼ mi+ - 280° 280° 5 kt METAR EDDS 040250Z AUTO 28005KT CAVOK 19/12 Q1019
4:20 am
V
66 °F 6¼ mi+ - 280° 280° 6 kt METAR EDDS 040220Z AUTO 28006KT CAVOK 19/12 Q1019
3:50 am
V
68 °F 6¼ mi+ - 300° 300° 5 kt METAR EDDS 040150Z AUTO 30005KT 270V330 CAVOK 20/12 Q1019
3:20 am
V
68 °F 6¼ mi+ - 310° 310° 7 kt METAR EDDS 040120Z AUTO 31007KT CAVOK 20/13 Q1019
2:50 am
V
68 °F 6¼ mi+ - 300° 300° 6 kt METAR EDDS 040050Z AUTO 30006KT CAVOK 20/13 Q1019
2:20 am
V
68 °F 6¼ mi+ - 310° 310° 7 kt METAR EDDS 040020Z AUTO 31007KT CAVOK 20/13 Q1019
1:50 am
V
70 °F 6¼ mi+ - 280° 280° 5 kt METAR EDDS 032350Z AUTO 28005KT 230V300 CAVOK 21/13 Q1019
1:20 am
V
68 °F 6¼ mi+ - 250° 250° 2 kt METAR EDDS 032320Z AUTO 25002KT CAVOK 20/14 Q1018
12:50 am
V
68 °F 6¼ mi+ - Var Var 1 kt METAR EDDS 032250Z AUTO VRB01KT CAVOK 20/14 Q1018
12:20 am
V
66 °F 6¼ mi+ - 270° 270° 3 kt METAR EDDS 032220Z AUTO 27003KT CAVOK 19/14 Q1018

3. Juli 2022

Uhrzeit Code Wetter Temp. Sichtweite Wolkendecke Wind METAR/SPECI
11:50 pm
V
66 °F 6¼ mi+ - 300° 300° 5 kt METAR EDDS 032150Z AUTO 30005KT CAVOK 19/14 Q1018
11:20 pm
V
70 °F 6¼ mi+ - 210° 210° 3 kt METAR EDDS 032120Z AUTO 21003KT 170V230 CAVOK 21/14 Q1018
10:50 pm
V
72 °F 6¼ mi+ - 240° 240° 2 kt METAR EDDS 032050Z AUTO 24002KT CAVOK 22/13 Q1018
10:20 pm
V
70 °F 6¼ mi+ - Var Var 1 kt METAR EDDS 032020Z AUTO VRB01KT CAVOK 21/14 Q1018
9:50 pm
V
75 °F 6¼ mi+ - 330° 330° 4 kt METAR EDDS 031950Z AUTO 33004KT 310V020 CAVOK 24/12 Q1017 NOSIG
9:20 pm
V
75 °F 6¼ mi+ - 010° 010° 4 kt METAR EDDS 031920Z AUTO 01004KT CAVOK 24/13 Q1017 NOSIG
8:50 pm
V
77 °F 6¼ mi+ - 350° 350° 4 kt METAR EDDS 031850Z AUTO 35004KT 310V020 CAVOK 25/12 Q1017 NOSIG
8:20 pm
V
79 °F 6¼ mi+ - 340° 340° 5 kt METAR EDDS 031820Z AUTO 34005KT 300V020 CAVOK 26/12 Q1017 NOSIG
7:50 pm
V
81 °F 6¼ mi+ - 350° 350° 6 kt METAR EDDS 031750Z AUTO 35006KT 310V030 CAVOK 27/12 Q1017 NOSIG
7:20 pm
V
81 °F 6¼ mi+ - 340° 340° 8 kt METAR EDDS 031720Z AUTO 34008KT 310V010 CAVOK 27/12 Q1017 NOSIG
6:50 pm
V
82 °F 6¼ mi+ - 340° 340° 8 kt METAR EDDS 031650Z AUTO 34008KT 280V050 CAVOK 28/12 Q1017 NOSIG
6:20 pm
V
84 °F 6¼ mi+ - 350° 350° 8 kt METAR EDDS 031620Z AUTO 35008KT 320V040 CAVOK 29/13 Q1017 NOSIG
5:50 pm
V
84 °F 6¼ mi+ - 340° 340° 6 kt METAR EDDS 031550Z AUTO 34006KT 300V080 CAVOK 29/12 Q1017 NOSIG
5:20 pm
V
84 °F 6¼ mi+ - 340° 340° 8 kt METAR EDDS 031520Z AUTO 34008KT 300V030 CAVOK 29/13 Q1017 NOSIG
4:50 pm
V
84 °F 6¼ mi+ - Var Var 6 kt METAR EDDS 031450Z AUTO VRB06KT CAVOK 29/12 Q1017 NOSIG
Ältere Daten

Laden Sie unsere App herunter

Einfacher Zugriff auf das gesamte Flugwetter auf Ihrem Mobiltelefon und Tablet.
Mit vielen Funktionen, die auf der Website nicht verfügbar sind, wie Offline-Unterstützung und eine persönliche Flughafenliste.

Wir und Dritte verfolgen dein Internetverhalten auf unserer Website mit Cookies. Wenn du fortfährst, gehen wir davon aus, dass du mit unserer Cookie-Richtlinie einverstanden bist. Mehr erfahren